Time;durP1;ratioP1;P1;durP2;ratioP2;P2;SDS_P1;SDS_P2;PMS_P1;PMS_P2;Temp;Humidity;BMP_temperature;BMP_pressure;BME280_temperature;BME280_humidity;BME280_pressure;Samples;Min_cycle;Max_cycle;Signal;HPM_P1;HPM_P2
2023/10/08 00:01:02;;;;;;;8.68;3.85;;;;;;;13.33;47.71;96245.63;4909818;29;20065;-79
2023/10/08 00:03:29;;;;;;;11.85;3.50;;;;;;;13.00;48.09;96249.41;4908491;29;20046;-79
2023/10/08 00:05:55;;;;;;;8.05;3.70;;;;;;;12.94;48.37;96250.06;4906733;29;20088;-79
2023/10/08 00:08:21;;;;;;;8.52;3.85;;;;;;;13.27;48.18;96246.34;4908522;29;20058;-79
2023/10/08 00:10:47;;;;;;;9.88;3.95;;;;;;;13.20;47.63;96250.75;4888968;29;20036;-79
2023/10/08 00:13:15;;;;;;;7.75;3.80;;;;;;;13.06;48.04;96247.84;4892522;29;20094;-78
2023/10/08 00:16:01;;;;;;;;;;;;;;;12.92;48.54;96244.09;4906768;29;20071;-79
2023/10/08 00:18:26;;;;;;;6.78;3.35;;;;;;;12.74;48.68;96245.19;4918814;29;20041;-80
2023/10/08 00:20:57;;;;;;;6.40;3.10;;;;;;;12.55;49.37;96246.47;4885425;29;20095;-80
2023/10/08 00:23:25;;;;;;;10.80;3.67;;;;;;;12.66;49.06;96247.91;4905771;29;20156;-78
2023/10/08 00:25:52;;;;;;;10.80;3.85;;;;;;;12.87;48.52;96249.94;4907545;29;20035;-79
2023/10/08 00:28:17;;;;;;;6.55;3.70;;;;;;;12.85;48.22;96241.25;4891764;29;20070;-80
2023/10/08 00:30:43;;;;;;;9.52;4.10;;;;;;;12.86;47.98;96242.94;4909646;29;20061;-79
2023/10/08 00:33:11;;;;;;;7.63;3.63;;;;;;;12.48;48.99;96240.16;4889159;29;20054;-79
2023/10/08 00:35:41;;;;;;;5.75;3.40;;;;;;;12.61;48.85;96242.25;4923217;29;20486;-79
2023/10/08 00:38:20;;;;;;;6.65;3.72;;;;;;;12.69;48.95;96241.38;4889678;29;20114;-79
2023/10/08 00:40:48;;;;;;;7.65;3.40;;;;;;;12.62;48.87;96244.72;4909729;29;20560;-78
2023/10/08 00:43:31;;;;;;;11.15;4.00;;;;;;;12.60;48.66;96240.59;4889687;29;20062;-79
2023/10/08 00:45:59;;;;;;;9.68;3.75;;;;;;;12.88;48.10;96245.41;4914906;29;20045;-78
2023/10/08 00:48:28;;;;;;;9.07;3.78;;;;;;;12.94;47.80;96239.38;4921847;29;20640;-79
2023/10/08 00:51:09;;;;;;;8.07;3.75;;;;;;;12.79;48.14;96252.69;4904553;29;20641;-79
2023/10/08 00:53:39;;;;;;;7.88;3.40;;;;;;;12.63;48.59;96250.91;4919877;29;20143;-78
2023/10/08 00:56:13;;;;;;;7.50;3.88;;;;;;;12.44;48.96;96241.50;4923402;29;20069;-78
2023/10/08 00:58:40;;;;;;;8.57;3.80;;;;;;;12.41;49.32;96240.03;4931028;29;20524;-78
2023/10/08 01:01:10;;;;;;;9.30;3.80;;;;;;;12.33;49.50;96248.06;4900762;29;20719;-78
2023/10/08 01:03:36;;;;;;;7.63;3.55;;;;;;;12.08;49.59;96245.50;4933805;29;20132;-79
2023/10/08 01:06:03;;;;;;;8.73;3.80;;;;;;;12.07;49.84;96250.00;4884298;29;20453;-79
2023/10/08 01:08:38;;;;;;;8.45;3.92;;;;;;;11.89;50.58;96247.50;4915734;29;20685;-79
2023/10/08 01:11:33;;;;;;;6.55;3.42;;;;;;;12.11;49.80;96248.63;4906916;29;20046;-79
2023/10/08 01:13:59;;;;;;;7.53;3.58;;;;;;;11.95;50.27;96256.66;4910167;29;20716;-80
2023/10/08 01:16:28;;;;;;;6.55;3.80;;;;;;;12.01;50.11;96253.31;4927221;29;20046;-78
2023/10/08 01:18:54;;;;;;;8.13;3.63;;;;;;;12.15;49.49;96254.47;4927042;29;20074;-78
2023/10/08 01:21:41;;;;;;;9.30;3.80;;;;;;;11.76;50.45;96264.03;4893664;29;20172;-78
2023/10/08 01:24:06;;;;;;;5.68;3.25;;;;;;;11.85;50.49;96265.72;4914885;29;20205;-78
2023/10/08 01:26:38;;;;;;;9.88;3.70;;;;;;;11.89;50.24;96260.84;4910788;29;20079;-78
2023/10/08 01:29:06;;;;;;;8.25;3.80;;;;;;;12.09;49.94;96248.00;4911075;29;20073;-79
2023/10/08 01:31:32;;;;;;;6.82;3.60;;;;;;;12.28;49.25;96253.94;4926744;29;20089;-78
2023/10/08 01:33:57;;;;;;;8.23;3.72;;;;;;;12.36;49.16;96243.22;4896792;29;20053;-79
2023/10/08 01:36:25;;;;;;;9.05;3.53;;;;;;;12.35;49.21;96236.22;4923341;29;20051;-79
2023/10/08 01:38:51;;;;;;;9.07;3.92;;;;;;;12.35;48.90;96235.38;4913619;29;20235;-78
2023/10/08 01:41:19;;;;;;;8.88;3.40;;;;;;;12.17;49.26;96230.28;4909152;29;20056;-78
2023/10/08 01:43:50;;;;;;;8.77;4.05;;;;;;;12.28;49.11;96232.56;4901770;29;20447;-79
2023/10/08 01:46:16;;;;;;;12.45;3.67;;;;;;;12.17;48.98;96236.44;4901545;29;20096;-79
2023/10/08 01:48:44;;;;;;;8.13;3.75;;;;;;;12.24;48.87;96239.28;4914582;29;20073;-79
2023/10/08 01:51:11;;;;;;;9.05;3.53;;;;;;;11.89;49.71;96237.69;4916295;29;20036;-79
2023/10/08 01:53:38;;;;;;;8.48;3.88;;;;;;;11.89;49.91;96232.34;4911985;29;20109;-78
2023/10/08 01:56:04;;;;;;;6.88;3.17;;;;;;;11.62;50.42;96230.91;4911499;29;20896;-78
2023/10/08 01:58:29;;;;;;;8.38;3.35;;;;;;;11.72;50.01;96242.22;4930288;29;20122;-81
2023/10/08 02:00:59;;;;;;;7.88;3.50;;;;;;;11.43;50.92;96237.44;4912711;29;20097;-80
2023/10/08 02:03:24;;;;;;;8.90;3.60;;;;;;;11.79;50.21;96215.69;4927063;29;20078;-80
2023/10/08 02:05:53;;;;;;;8.23;3.88;;;;;;;11.62;50.59;96221.06;4915003;29;20093;-78
2023/10/08 02:08:18;;;;;;;6.38;3.47;;;;;;;11.52;50.69;96239.09;4925435;29;20048;-79
2023/10/08 02:10:47;;;;;;;8.57;3.63;;;;;;;11.35;51.69;96236.44;4922841;29;20070;-80
2023/10/08 02:13:13;;;;;;;;;;;;;;;11.24;51.75;96245.63;4888979;29;20489;-80
2023/10/08 02:15:44;;;;;;;9.50;3.65;;;;;;;11.38;51.75;96241.44;4904131;29;19962;-79
2023/10/08 02:18:10;;;;;;;6.97;3.53;;;;;;;11.21;52.40;96251.28;4916262;29;20051;-78
2023/10/08 02:20:35;;;;;;;9.93;3.72;;;;;;;11.40;51.97;96249.28;4913115;29;20129;-78
2023/10/08 02:23:00;;;;;;;8.32;3.47;;;;;;;11.06;52.68;96248.41;4926237;29;20605;-80
2023/10/08 02:25:27;;;;;;;9.68;4.07;;;;;;;11.13;52.59;96248.63;4913478;29;20031;-78
2023/10/08 02:27:52;;;;;;;7.88;3.83;;;;;;;11.02;52.87;96241.75;4917615;29;20070;-80
2023/10/08 02:30:18;;;;;;;8.88;3.92;;;;;;;11.23;52.64;96243.13;4927634;29;20685;-77
2023/10/08 02:32:44;;;;;;;7.78;3.80;;;;;;;10.83;53.35;96254.38;4920716;29;20064;-78
2023/10/08 02:35:11;;;;;;;7.15;3.60;;;;;;;10.45;54.68;96267.25;4879290;29;20082;-78
2023/10/08 02:37:39;;;;;;;9.55;3.85;;;;;;;10.53;54.77;96267.28;4930635;29;20027;-78
2023/10/08 02:40:14;;;;;;;8.55;3.85;;;;;;;10.41;55.01;96274.75;4915520;29;20143;-79
2023/10/08 02:42:41;;;;;;;12.40;3.70;;;;;;;10.84;53.72;96264.03;4918549;29;20071;-78
2023/10/08 02:45:13;;;;;;;8.68;3.70;;;;;;;10.99;53.11;96264.22;4918228;29;20059;-78
2023/10/08 02:47:44;;;;;;;6.57;3.60;;;;;;;11.23;52.23;96259.09;4917791;29;20046;-80
2023/10/08 02:50:16;;;;;;;11.45;3.80;;;;;;;11.09;52.56;96268.59;4916215;29;20049;-77
2023/10/08 02:52:42;;;;;;;11.40;3.97;;;;;;;11.20;52.47;96265.59;4914350;29;20120;-78
2023/10/08 02:55:18;;;;;;;11.25;3.80;;;;;;;11.36;51.97;96259.44;4897551;29;20073;-80
2023/10/08 02:57:44;;;;;;;7.03;3.45;;;;;;;10.98;52.82;96267.88;4913112;29;20049;-79
2023/10/08 03:00:13;;;;;;;11.93;3.97;;;;;;;11.10;52.85;96275.59;4926667;29;20623;-79
2023/10/08 03:02:39;;;;;;;10.55;3.67;;;;;;;11.01;53.18;96288.03;4926147;29;20175;-79
2023/10/08 03:05:08;;;;;;;11.25;3.88;;;;;;;11.20;53.00;96280.75;4926398;29;20439;-78
2023/10/08 03:07:35;;;;;;;9.95;3.60;;;;;;;11.41;52.67;96276.75;4891653;29;20537;-80
2023/10/08 03:10:03;;;;;;;9.32;4.35;;;;;;;11.69;52.17;96273.75;4931084;29;20098;-77
2023/10/08 03:12:32;;;;;;;7.35;3.70;;;;;;;11.42;53.08;96283.78;4909125;29;20107;-77
2023/10/08 03:15:12;;;;;;;9.75;3.90;;;;;;;11.49;53.10;96288.25;4930176;29;20083;-77
2023/10/08 03:17:48;;;;;;;8.45;3.70;;;;;;;11.06;54.16;96277.72;4914285;29;20053;-78
2023/10/08 03:23:05;;;;;;;9.02;3.80;;;;;;;11.76;53.27;96264.03;4898831;29;20089;-77
2023/10/08 03:25:30;;;;;;;10.55;4.05;;;;;;;11.59;52.86;96253.41;4897558;29;20066;-77
2023/10/08 03:27:59;;;;;;;8.05;3.70;;;;;;;11.43;53.36;96258.78;4934461;29;20543;-77
2023/10/08 03:30:26;;;;;;;8.85;3.92;;;;;;;11.26;53.81;96264.94;4910795;29;20181;-77
2023/10/08 03:32:55;;;;;;;13.40;4.37;;;;;;;11.46;53.68;96255.78;4935430;29;20043;-77
2023/10/08 03:35:27;;;;;;;7.53;3.97;;;;;;;11.70;52.68;96260.22;4906457;29;20436;-78
2023/10/08 03:37:54;;;;;;;6.93;4.10;;;;;;;11.89;52.45;96255.53;4933079;29;20043;-76
2023/10/08 03:42:49;;;;;;;9.63;4.03;;;;;;;11.84;52.33;96242.72;4934763;29;20035;-77
2023/10/08 03:45:22;;;;;;;10.75;3.97;;;;;;;11.98;51.75;96232.31;4917265;29;20050;-77
2023/10/08 03:47:56;;;;;;;9.93;3.88;;;;;;;12.06;51.59;96236.78;4917239;29;20068;-78
2023/10/08 03:50:32;;;;;;;9.05;4.28;;;;;;;11.96;51.71;96232.50;4899786;29;20717;-77
2023/10/08 03:52:58;;;;;;;8.65;3.95;;;;;;;12.24;51.19;96233.94;4913638;29;20060;-77
2023/10/08 03:55:26;;;;;;;10.48;4.10;;;;;;;12.05;51.55;96219.13;4912530;29;20071;-77
2023/10/08 03:58:03;;;;;;;12.18;4.03;;;;;;;12.18;51.20;96234.63;4911270;29;20060;-78
2023/10/08 04:00:31;;;;;;;8.18;3.30;;;;;;;11.67;52.33;96239.25;4910676;29;20150;-77
2023/10/08 04:03:07;;;;;;;9.38;4.25;;;;;;;11.74;52.77;96252.72;4907314;29;20074;-78
2023/10/08 04:05:59;;;;;;;7.75;3.92;;;;;;;11.15;53.89;96251.94;4909439;29;20234;-77
2023/10/08 04:08:39;;;;;;;10.07;3.70;;;;;;;10.83;55.32;96273.03;4897983;29;20070;-76
2023/10/08 04:11:08;;;;;;;7.78;3.35;;;;;;;10.55;55.98;96273.28;4892751;29;20082;-76
2023/10/08 04:13:34;;;;;;;;;;;;;;;10.97;54.98;96282.19;4894965;29;20135;-78
2023/10/08 04:15:59;;;;;;;12.82;4.07;;;;;;;10.86;55.40;96271.84;4901419;29;19949;-78
2023/10/08 04:18:25;;;;;;;7.03;3.85;;;;;;;10.94;55.03;96260.38;4892560;29;20084;-77
2023/10/08 04:21:00;;;;;;;7.50;3.70;;;;;;;10.53;56.16;96280.59;4924111;29;20058;-78
2023/10/08 04:23:25;;;;;;;10.00;4.25;;;;;;;10.54;56.40;96279.59;4894661;29;20081;-78
2023/10/08 04:25:54;;;;;;;11.88;4.03;;;;;;;10.59;55.99;96263.13;4896486;29;20069;-77
2023/10/08 04:28:20;;;;;;;11.07;3.67;;;;;;;10.62;55.77;96266.28;4906398;29;20173;-77
2023/10/08 04:30:47;;;;;;;10.43;3.42;;;;;;;10.41;55.96;96264.09;4876655;29;20066;-76
2023/10/08 04:33:14;;;;;;;10.48;4.55;;;;;;;10.39;56.03;96252.75;4912028;29;20151;-78
2023/10/08 04:35:51;;;;;;;10.02;4.43;;;;;;;10.55;55.88;96257.31;4915140;29;20067;-77
2023/10/08 04:38:21;;;;;;;7.67;4.00;;;;;;;10.30;56.34;96270.53;4912193;29;20090;-77
2023/10/08 04:40:51;;;;;;;8.70;4.00;;;;;;;10.14;56.73;96281.94;4898613;29;20054;-79
2023/10/08 04:43:30;;;;;;;11.93;4.35;;;;;;;10.32;56.75;96259.72;4897171;29;20075;-79
2023/10/08 04:45:58;;;;;;;7.25;3.63;;;;;;;10.09;57.53;96277.09;4911450;29;20060;-78
2023/10/08 04:48:24;;;;;;;10.73;3.83;;;;;;;10.39;56.83;96273.22;4886009;29;20456;-78
2023/10/08 04:51:00;;;;;;;7.28;3.80;;;;;;;10.33;57.29;96274.69;4912718;29;20151;-78
2023/10/08 04:53:36;;;;;;;9.60;4.10;;;;;;;10.83;55.76;96253.53;4923050;29;20278;-78
2023/10/08 04:56:05;;;;;;;8.98;4.15;;;;;;;11.07;54.92;96234.09;4908683;29;20633;-77
2023/10/08 04:58:40;;;;;;;9.50;4.57;;;;;;;11.47;53.19;96226.28;4924218;29;20078;-77
2023/10/08 05:01:17;;;;;;;9.20;4.05;;;;;;;11.28;53.65;96226.63;4907315;29;20374;-78
2023/10/08 05:09:22;;;;;;;10.43;4.63;;;;;;;11.52;52.73;96207.09;4919863;29;20099;-78
2023/10/08 05:17:09;;;;;;;10.27;4.03;;;;;;;10.53;55.59;96242.47;4907851;29;20051;-78
2023/10/08 05:22:44;;;;;;;10.88;4.60;;;;;;;10.27;56.29;96268.19;4921849;29;20138;-78
2023/10/08 05:25:11;;;;;;;15.60;4.60;;;;;;;9.92;57.83;96285.94;4922207;29;20415;-77
2023/10/08 05:27:56;;;;;;;14.27;4.40;;;;;;;9.91;58.00;96287.78;4901814;29;20079;-78
2023/10/08 05:30:38;;;;;;;9.68;3.58;;;;;;;9.55;59.45;96301.16;4905776;29;20074;-78
2023/10/08 05:33:12;;;;;;;10.63;3.80;;;;;;;9.33;60.07;96306.81;4916984;29;20078;-79
2023/10/08 05:38:22;;;;;;;10.80;4.22;;;;;;;9.58;59.30;96314.97;4914495;29;20786;-77
2023/10/08 05:47:12;;;;;;;7.28;3.83;;;;;;;9.55;59.18;96312.63;4929182;29;20566;-79
2023/10/08 05:52:11;;;;;;;10.05;4.80;;;;;;;9.75;59.07;96299.13;4927885;29;20097;-79
2023/10/08 05:59:52;;;;;;;8.90;3.95;;;;;;;10.08;58.25;96301.19;4893603;29;20073;-78
2023/10/08 06:02:29;;;;;;;10.02;4.60;;;;;;;10.70;56.66;96283.28;4915693;29;20203;-78
2023/10/08 06:07:48;;;;;;;9.32;4.10;;;;;;;10.46;56.94;96285.72;4906718;29;20239;-77
2023/10/08 06:13:01;;;;;;;;;;;;;;;10.21;57.72;96292.78;4931385;29;20125;-78
2023/10/08 06:15:37;;;;;;;9.57;4.25;;;;;;;10.38;57.27;96295.50;4913158;29;19959;-79
2023/10/08 06:18:07;;;;;;;11.13;4.30;;;;;;;10.12;58.19;96323.84;4926930;29;20056;-77
2023/10/08 06:20:34;;;;;;;9.75;4.40;;;;;;;9.88;58.69;96333.31;4913739;29;20515;-77
2023/10/08 06:23:06;;;;;;;9.63;4.47;;;;;;;9.82;59.37;96342.72;4935235;29;20078;-78
2023/10/08 06:25:32;;;;;;;12.68;4.20;;;;;;;9.78;59.74;96341.38;4930330;29;20054;-78
2023/10/08 06:27:58;;;;;;;13.93;4.60;;;;;;;9.97;58.87;96340.31;4931966;28;20627;-77
2023/10/08 06:30:28;;;;;;;11.50;4.45;;;;;;;9.82;59.59;96339.22;4910287;29;20075;-78
2023/10/08 06:32:54;;;;;;;14.55;5.00;;;;;;;9.77;59.65;96350.34;4913539;29;20130;-78
2023/10/08 06:35:24;;;;;;;18.02;4.57;;;;;;;9.56;60.56;96346.19;4928999;29;20074;-78
2023/10/08 06:37:54;;;;;;;10.27;4.25;;;;;;;9.55;60.52;96349.84;4918511;29;20079;-77
2023/10/08 06:43:16;;;;;;;11.43;4.78;;;;;;;9.16;62.10;96355.47;4931611;29;20167;-76
2023/10/08 06:45:44;;;;;;;13.15;4.28;;;;;;;9.37;61.11;96346.34;4915249;29;20085;-77
2023/10/08 06:48:17;;;;;;;8.00;4.07;;;;;;;9.55;60.49;96338.34;4921097;29;20558;-77
2023/10/08 06:50:44;;;;;;;15.00;4.68;;;;;;;9.65;60.11;96348.94;4916026;29;20113;-76
2023/10/08 06:53:13;;;;;;;6.47;4.13;;;;;;;9.82;60.21;96345.38;4929601;29;20756;-77
2023/10/08 06:55:40;;;;;;;8.45;4.13;;;;;;;9.84;59.38;96342.59;4895330;29;20075;-77
2023/10/08 06:58:05;;;;;;;8.88;4.38;;;;;;;10.18;58.97;96341.00;4929266;28;20054;-77
2023/10/08 07:00:39;;;;;;;9.10;4.18;;;;;;;10.28;58.28;96339.06;4910794;29;20536;-77
2023/10/08 07:03:10;;;;;;;13.15;4.70;;;;;;;10.59;56.99;96317.22;4896376;29;20063;-77
2023/10/08 07:05:36;;;;;;;12.40;4.90;;;;;;;11.17;55.50;96313.06;4925405;28;20055;-77
2023/10/08 07:08:06;;;;;;;14.73;4.60;;;;;;;11.55;54.03;96308.09;4923430;29;20802;-77
2023/10/08 07:10:35;;;;;;;10.50;4.43;;;;;;;11.35;54.29;96327.06;4909152;29;20676;-78
2023/10/08 07:13:02;;;;;;;11.85;4.72;;;;;;;11.07;55.58;96337.16;4891903;29;20056;-77
2023/10/08 07:15:29;;;;;;;14.85;4.60;;;;;;;11.04;55.38;96333.00;4893340;29;20078;-77
2023/10/08 07:17:56;;;;;;;10.25;4.32;;;;;;;10.84;56.27;96341.28;4907565;29;20621;-77
2023/10/08 07:20:22;;;;;;;9.27;4.47;;;;;;;10.72;56.78;96345.22;4892724;29;20110;-77
2023/10/08 07:22:53;;;;;;;10.15;4.10;;;;;;;10.65;56.78;96349.53;4931885;29;20085;-77
2023/10/08 07:25:21;;;;;;;8.02;4.38;;;;;;;10.70;57.24;96352.53;4931222;29;20126;-76
2023/10/08 07:27:47;;;;;;;11.10;4.80;;;;;;;11.27;55.48;96351.06;4919552;29;20072;-78
2023/10/08 07:30:13;;;;;;;9.77;3.78;;;;;;;10.78;56.35;96355.22;4914161;29;20065;-77
2023/10/08 07:32:39;;;;;;;8.25;4.30;;;;;;;10.78;56.49;96354.41;4920763;29;20738;-77
2023/10/08 07:35:29;;;;;;;12.05;5.25;;;;;;;10.86;56.73;96360.59;4902107;29;20208;-77
2023/10/08 07:37:54;;;;;;;11.48;4.90;;;;;;;11.29;55.24;96353.56;4926111;29;20087;-77
2023/10/08 07:40:20;;;;;;;8.68;3.72;;;;;;;11.00;55.58;96366.28;4915164;29;20048;-78
2023/10/08 07:42:51;;;;;;;9.60;4.50;;;;;;;11.26;55.23;96365.41;4926400;28;20109;-76
2023/10/08 07:45:17;;;;;;;9.73;4.55;;;;;;;11.06;55.71;96364.81;4901245;29;20471;-78
2023/10/08 07:47:44;;;;;;;10.80;4.35;;;;;;;11.18;55.09;96368.88;4938025;29;20062;-78
2023/10/08 07:50:11;;;;;;;16.38;5.60;;;;;;;11.12;55.81;96366.88;4926624;29;20144;-78
2023/10/08 07:52:37;;;;;;;12.27;4.77;;;;;;;11.04;55.23;96354.31;4905764;29;20037;-78
2023/10/08 07:55:04;;;;;;;17.55;4.60;;;;;;;11.43;54.46;96349.41;4922766;29;20342;-79
2023/10/08 07:57:30;;;;;;;12.93;4.60;;;;;;;11.35;54.82;96337.75;4932342;29;20064;-77
2023/10/08 08:00:01;;;;;;;12.20;4.13;;;;;;;10.95;55.23;96347.31;4926399;29;20073;-80
2023/10/08 08:02:27;;;;;;;9.82;3.88;;;;;;;10.65;56.18;96366.34;4901571;29;20073;-79
2023/10/08 08:04:52;;;;;;;10.90;4.43;;;;;;;10.90;56.23;96373.56;4923232;29;20122;-78
2023/10/08 08:07:19;;;;;;;10.30;4.38;;;;;;;10.71;56.78;96388.84;4895201;29;20288;-79
2023/10/08 08:09:50;;;;;;;9.98;4.93;;;;;;;11.08;57.28;96390.28;4895331;29;20066;-77
2023/10/08 08:12:21;;;;;;;9.20;4.50;;;;;;;11.25;55.36;96375.22;4900754;29;20188;-78
2023/10/08 08:14:47;;;;;;;9.80;4.50;;;;;;;11.09;55.71;96367.19;4890481;29;20074;-78
2023/10/08 08:17:16;;;;;;;11.05;5.18;;;;;;;10.98;56.49;96368.31;4900296;29;20044;-77
2023/10/08 08:19:47;;;;;;;10.05;4.57;;;;;;;10.93;57.01;96394.56;4909144;29;20066;-78
2023/10/08 08:22:15;;;;;;;10.55;3.95;;;;;;;10.25;57.98;96392.59;4925458;29;20563;-78
2023/10/08 08:24:44;;;;;;;17.52;5.40;;;;;;;10.43;58.11;96389.03;4895183;29;20078;-78
2023/10/08 08:27:31;;;;;;;8.98;4.38;;;;;;;10.57;58.03;96392.94;4894144;29;20067;-78
2023/10/08 08:30:01;;;;;;;12.43;4.53;;;;;;;10.53;58.51;96403.06;4897753;29;20065;-79
2023/10/08 08:32:28;;;;;;;10.77;4.72;;;;;;;10.72;58.55;96401.97;4911531;29;20446;-78
2023/10/08 08:34:53;;;;;;;10.77;4.07;;;;;;;10.46;58.55;96397.53;4911585;29;20069;-77
2023/10/08 08:37:22;;;;;;;11.40;4.03;;;;;;;10.55;58.78;96410.91;4913665;29;20054;-80
2023/10/08 08:39:47;;;;;;;;;;;;;;;10.61;59.00;96405.75;4927860;29;20098;-77
2023/10/08 08:42:14;;;;;;;11.30;4.50;;;;;;;10.54;58.67;96394.06;4945146;29;19960;-79
2023/10/08 08:44:50;;;;;;;15.90;6.30;;;;;;;10.60;58.79;96392.59;4910894;29;20037;-78
2023/10/08 08:47:19;;;;;;;9.60;4.45;;;;;;;10.82;58.73;96401.88;4916686;29;20077;-81
2023/10/08 08:49:47;;;;;;;20.17;6.35;;;;;;;11.22;58.53;96390.72;4915761;29;20784;-78
2023/10/08 08:52:13;;;;;;;19.00;6.05;;;;;;;11.50;57.86;96395.75;4912869;29;20130;-78
2023/10/08 08:54:39;;;;;;;13.20;5.40;;;;;;;11.45;57.20;96408.72;4910748;29;20577;-79
2023/10/08 08:57:06;;;;;;;13.02;5.72;;;;;;;11.41;56.92;96410.06;4916823;29;20049;-79
2023/10/08 08:59:31;;;;;;;18.85;6.72;;;;;;;11.53;57.80;96398.09;4916495;29;20054;-78
2023/10/08 09:01:59;;;;;;;21.25;8.50;;;;;;;11.52;58.48;96407.06;4897169;29;20306;-77
2023/10/08 09:04:32;;;;;;;21.05;8.98;;;;;;;11.96;56.29;96402.41;4910903;29;20047;-77
2023/10/08 09:06:59;;;;;;;19.42;7.80;;;;;;;11.80;57.44;96408.59;4905335;29;20078;-77
2023/10/08 09:09:31;;;;;;;19.85;8.93;;;;;;;11.92;56.78;96401.09;4915041;29;20039;-78
2023/10/08 09:11:57;;;;;;;23.00;7.47;;;;;;;11.70;57.96;96403.44;4933893;29;20566;-78
2023/10/08 09:14:25;;;;;;;16.52;6.68;;;;;;;11.82;58.16;96401.25;4919463;29;20035;-78
2023/10/08 09:16:50;;;;;;;17.70;7.77;;;;;;;12.21;56.82;96402.44;4918128;29;20074;-78
2023/10/08 09:19:19;;;;;;;21.30;8.07;;;;;;;12.20;57.15;96398.13;4902814;29;20907;-78
2023/10/08 09:22:05;;;;;;;16.17;8.60;;;;;;;12.54;55.91;96405.03;4916994;29;20507;-78
2023/10/08 09:24:38;;;;;;;21.08;8.82;;;;;;;12.43;56.79;96406.22;4886422;29;20039;-77
2023/10/08 09:27:08;;;;;;;28.02;9.25;;;;;;;12.33;58.52;96422.44;4907537;29;20050;-78
2023/10/08 09:29:42;;;;;;;18.30;7.93;;;;;;;12.59;57.21;96426.75;4905280;29;20443;-78
2023/10/08 09:32:13;;;;;;;23.00;9.18;;;;;;;12.95;57.39;96420.09;4924256;29;20164;-78
2023/10/08 09:34:38;;;;;;;21.35;8.55;;;;;;;13.41;54.90;96407.84;4919435;29;20077;-77
2023/10/08 09:37:04;;;;;;;18.70;7.03;;;;;;;13.60;53.95;96409.22;4920783;29;20046;-78
2023/10/08 09:39:33;;;;;;;21.60;8.20;;;;;;;13.65;53.03;96401.53;4917192;29;20047;-77
2023/10/08 09:41:59;;;;;;;19.25;7.53;;;;;;;13.48;53.67;96407.97;4912892;29;20035;-78
2023/10/08 09:44:25;;;;;;;19.00;7.28;;;;;;;13.54;53.35;96420.66;4935708;29;20067;-77
2023/10/08 09:47:06;;;;;;;19.67;8.02;;;;;;;13.43;53.89;96420.03;4918057;29;20069;-77
2023/10/08 09:49:42;;;;;;;19.15;7.68;;;;;;;13.80;53.10;96422.13;4903744;29;20212;-78
2023/10/08 09:52:07;;;;;;;18.95;7.97;;;;;;;14.10;51.92;96414.22;4921245;29;20043;-78
2023/10/08 09:54:44;;;;;;;20.33;7.60;;;;;;;14.13;51.41;96423.75;4920418;29;20132;-77
2023/10/08 09:57:10;;;;;;;24.70;8.55;;;;;;;14.25;51.64;96422.31;4896593;29;20051;-77
2023/10/08 09:59:37;;;;;;;21.50;7.95;;;;;;;14.01;52.36;96426.84;4916984;29;20198;-77
2023/10/08 10:02:03;;;;;;;16.67;7.72;;;;;;;13.72;53.16;96436.41;4900313;29;20471;-78
2023/10/08 10:04:31;;;;;;;19.00;7.95;;;;;;;13.69;53.24;96434.09;4905612;29;20036;-78
2023/10/08 10:07:00;;;;;;;17.73;8.77;;;;;;;13.80;54.19;96440.88;4906888;29;20744;-76
2023/10/08 10:09:26;;;;;;;23.10;8.25;;;;;;;13.65;54.60;96447.00;4940420;29;20032;-78
2023/10/08 10:11:52;;;;;;;28.20;9.52;;;;;;;13.59;55.24;96454.91;4917238;29;20065;-78
2023/10/08 10:14:18;;;;;;;23.85;8.23;;;;;;;13.41;54.96;96458.69;4929431;29;20041;-79
2023/10/08 10:16:48;;;;;;;28.35;8.40;;;;;;;13.59;54.76;96465.63;4911791;29;20051;-78
2023/10/08 10:19:18;;;;;;;20.13;7.97;;;;;;;13.81;55.40;96461.28;4937454;29;20039;-78
2023/10/08 10:21:43;;;;;;;19.58;7.35;;;;;;;14.29;52.99;96461.09;4938382;28;20043;-77
2023/10/08 10:24:37;;;;;;;24.15;7.88;;;;;;;15.12;50.39;96464.78;4918953;29;20054;-77
2023/10/08 10:27:14;;;;;;;20.15;6.80;;;;;;;15.29;49.96;96473.47;4944155;29;20042;-77
2023/10/08 10:29:43;;;;;;;22.15;7.82;;;;;;;15.75;49.10;96482.28;4932678;29;20031;-78
2023/10/08 10:32:10;;;;;;;15.80;7.03;;;;;;;15.05;50.42;96485.31;4915709;29;20483;-81
2023/10/08 10:34:38;;;;;;;20.83;9.05;;;;;;;15.08;51.89;96483.09;4926426;29;20107;-77
2023/10/08 10:37:09;;;;;;;20.30;8.48;;;;;;;15.17;50.52;96481.16;4944340;29;20299;-79
2023/10/08 10:39:39;;;;;;;16.95;7.38;;;;;;;15.33;50.13;96482.78;4933474;29;20427;-79
2023/10/08 10:42:06;;;;;;;22.48;10.35;;;;;;;15.88;47.52;96479.72;4917276;29;20053;-77
2023/10/08 10:44:32;;;;;;;23.65;9.50;;;;;;;16.52;48.58;96484.44;4939693;29;20039;-77
2023/10/08 10:49:52;;;;;;;19.35;8.40;;;;;;;17.08;46.62;96480.06;4910053;29;20122;-77
2023/10/08 10:53:13;;;;;;;15.48;8.18;;;;;;;17.15;46.50;96477.44;4912785;29;20062;-77
2023/10/08 10:57:41;;;;;;;19.52;9.45;;;;;;;17.15;42.21;96472.03;4920242;29;20035;-77
2023/10/08 11:02:51;;;;;;;20.98;8.52;;;;;;;17.62;45.04;96460.63;4932061;29;20594;-77
2023/10/08 11:05:19;;;;;;;21.88;8.90;;;;;;;17.25;45.07;96467.13;4937920;29;20035;-79
2023/10/08 11:07:54;;;;;;;21.67;8.77;;;;;;;17.94;44.51;96462.81;4903416;29;20025;-77
2023/10/08 11:10:24;;;;;;;17.92;7.93;;;;;;;17.91;44.01;96458.63;4915583;29;20046;-79
2023/10/08 11:12:53;;;;;;;17.98;7.72;;;;;;;17.90;44.24;96463.22;4917805;29;20023;-80
2023/10/08 11:15:18;;;;;;;16.17;7.88;;;;;;;18.14;44.73;96460.13;4903951;29;20197;-78
2023/10/08 11:17:44;;;;;;;14.10;8.50;;;;;;;18.05;42.44;96464.88;4903221;29;20090;-78
2023/10/08 11:20:29;;;;;;;19.35;8.35;;;;;;;18.07;41.32;96472.75;4927094;29;20118;-78
2023/10/08 11:22:55;;;;;;;23.13;9.05;;;;;;;18.68;40.55;96463.69;4908338;29;20044;-78
2023/10/08 11:25:27;;;;;;;20.33;8.38;;;;;;;18.51;43.13;96468.63;4874211;29;20161;-78
2023/10/08 11:28:01;;;;;;;14.40;7.20;;;;;;;18.79;42.18;96470.28;4929364;29;20040;-79
2023/10/08 11:30:31;;;;;;;19.67;7.65;;;;;;;18.48;42.78;96465.50;4890760;29;20127;-79
2023/10/08 11:32:59;;;;;;;18.13;7.10;;;;;;;18.23;42.94;96476.94;4910174;29;20039;-77
2023/10/08 11:35:27;;;;;;;;;;;;;;;17.71;44.53;96470.16;4924261;29;20039;-75
2023/10/08 11:37:57;;;;;;;15.30;6.32;;;;;;;17.44;46.14;96480.03;4928600;29;20444;-75
2023/10/08 11:40:29;;;;;;;15.00;7.72;;;;;;;17.28;45.56;96471.28;4901594;29;20055;-75
2023/10/08 11:42:58;;;;;;;18.90;7.97;;;;;;;17.86;44.03;96470.06;4912775;29;20063;-75
2023/10/08 11:45:25;;;;;;;15.02;7.07;;;;;;;17.98;44.31;96469.44;4900185;29;20034;-75
2023/10/08 11:48:11;;;;;;;15.95;6.93;;;;;;;18.07;43.10;96467.38;4930888;29;20103;-75
2023/10/08 11:50:38;;;;;;;14.02;6.07;;;;;;;18.17;43.49;96470.50;4914550;29;20047;-75
2023/10/08 11:53:05;;;;;;;12.77;5.65;;;;;;;18.24;43.39;96474.03;4934154;29;20473;-75
2023/10/08 11:55:35;;;;;;;17.13;5.97;;;;;;;17.58;45.38;96472.84;4918610;29;20035;-75
2023/10/08 11:58:01;;;;;;;16.13;6.90;;;;;;;17.12;45.84;96475.97;4908147;29;20101;-75
2023/10/08 12:00:26;;;;;;;14.32;6.63;;;;;;;17.27;45.64;96473.13;4928572;29;20038;-76
2023/10/08 12:02:54;;;;;;;16.52;6.78;;;;;;;16.71;46.87;96476.72;4904768;29;20102;-75
2023/10/08 12:05:20;;;;;;;11.68;6.47;;;;;;;16.82;46.82;96478.06;4922479;29;20055;-79
2023/10/08 12:07:52;;;;;;;14.77;6.90;;;;;;;15.92;48.72;96482.03;4925493;29;20077;-78
2023/10/08 12:10:22;;;;;;;14.48;7.97;;;;;;;16.08;49.02;96472.91;4907739;29;20046;-79
2023/10/08 12:12:54;;;;;;;14.63;6.97;;;;;;;16.71;47.11;96468.66;4921147;29;20243;-79
2023/10/08 12:15:20;;;;;;;15.32;7.22;;;;;;;16.61;47.04;96471.69;4908348;29;20035;-81
2023/10/08 12:20:34;;;;;;;13.52;7.50;;;;;;;16.03;48.83;96470.78;4897216;29;20039;-80
2023/10/08 12:22:59;;;;;;;14.33;7.77;;;;;;;16.03;48.63;96467.25;4910893;29;20047;-78
2023/10/08 12:25:25;;;;;;;16.10;8.40;;;;;;;15.92;48.79;96469.44;4925504;29;20046;-79
2023/10/08 12:27:50;;;;;;;16.77;8.77;;;;;;;16.64;46.42;96471.31;4911707;29;20039;-79
2023/10/08 12:30:16;;;;;;;15.18;8.27;;;;;;;16.82;47.01;96468.09;4885845;29;20050;-78
2023/10/08 12:32:42;;;;;;;19.67;8.38;;;;;;;17.21;46.01;96465.88;4908206;29;20027;-78
2023/10/08 12:35:12;;;;;;;17.35;8.45;;;;;;;17.65;45.11;96463.72;4905233;29;20062;-77
2023/10/08 12:37:39;;;;;;;15.75;8.63;;;;;;;17.75;44.66;96463.34;4910039;29;20782;-78